sensor_id;sensor_type;location;lat;lon;timestamp;pressure;altitude;pressure_sealevel;temperature;humidity
47811;BME280;33575;52.600;7.318;2023-04-23T00:00:11;100587.59;;;10.79;91.04
47811;BME280;33575;52.600;7.318;2023-04-23T00:02:43;100586.49;;;10.74;91.40
47811;BME280;33575;52.600;7.318;2023-04-23T00:05:12;100593.46;;;10.71;90.87
47811;BME280;33575;52.600;7.318;2023-04-23T00:07:42;100595.35;;;10.66;91.84
47811;BME280;33575;52.600;7.318;2023-04-23T00:10:13;100588.73;;;10.66;91.64
47811;BME280;33575;52.600;7.318;2023-04-23T00:12:43;100586.44;;;10.63;92.30
47811;BME280;33575;52.600;7.318;2023-04-23T00:15:16;100585.33;;;10.62;90.99
47811;BME280;33575;52.600;7.318;2023-04-23T00:17:44;100586.40;;;10.62;91.24
47811;BME280;33575;52.600;7.318;2023-04-23T00:20:14;100591.34;;;10.61;91.61
47811;BME280;33575;52.600;7.318;2023-04-23T00:22:44;100590.45;;;10.60;90.85
47811;BME280;33575;52.600;7.318;2023-04-23T00:25:14;100594.59;;;10.57;90.99
47811;BME280;33575;52.600;7.318;2023-04-23T00:27:44;100602.46;;;10.51;91.85
47811;BME280;33575;52.600;7.318;2023-04-23T00:30:14;100600.37;;;10.49;91.22
47811;BME280;33575;52.600;7.318;2023-04-23T00:32:45;100594.17;;;10.50;90.41
47811;BME280;33575;52.600;7.318;2023-04-23T00:35:15;100595.33;;;10.46;90.91
47811;BME280;33575;52.600;7.318;2023-04-23T00:37:45;100595.06;;;10.44;90.53
47811;BME280;33575;52.600;7.318;2023-04-23T00:40:15;100588.52;;;10.40;90.26
47811;BME280;33575;52.600;7.318;2023-04-23T00:42:46;100584.49;;;10.37;92.03
47811;BME280;33575;52.600;7.318;2023-04-23T00:45:16;100585.97;;;10.38;93.58
47811;BME280;33575;52.600;7.318;2023-04-23T00:47:47;100585.47;;;10.39;92.92
47811;BME280;33575;52.600;7.318;2023-04-23T00:50:17;100587.45;;;10.37;92.03
47811;BME280;33575;52.600;7.318;2023-04-23T00:52:47;100588.19;;;10.35;91.29
47811;BME280;33575;52.600;7.318;2023-04-23T00:55:18;100590.80;;;10.31;91.44
47811;BME280;33575;52.600;7.318;2023-04-23T00:57:49;100590.98;;;10.26;91.03
47811;BME280;33575;52.600;7.318;2023-04-23T01:00:19;100592.40;;;10.22;91.34
47811;BME280;33575;52.600;7.318;2023-04-23T01:02:50;100590.86;;;10.20;90.00
47811;BME280;33575;52.600;7.318;2023-04-23T01:05:21;100589.33;;;10.16;88.92
47811;BME280;33575;52.600;7.318;2023-04-23T01:07:51;100587.61;;;10.11;90.66
47811;BME280;33575;52.600;7.318;2023-04-23T01:10:21;100586.78;;;10.09;90.01
47811;BME280;33575;52.600;7.318;2023-04-23T01:12:52;100585.24;;;10.06;90.40
47811;BME280;33575;52.600;7.318;2023-04-23T01:15:22;100590.50;;;10.04;90.81
47811;BME280;33575;52.600;7.318;2023-04-23T01:17:53;100590.12;;;10.03;90.28
47811;BME280;33575;52.600;7.318;2023-04-23T01:20:23;100592.61;;;10.02;90.70
47811;BME280;33575;52.600;7.318;2023-04-23T01:22:54;100587.98;;;10.02;90.95
47811;BME280;33575;52.600;7.318;2023-04-23T01:25:24;100584.88;;;10.00;91.37
47811;BME280;33575;52.600;7.318;2023-04-23T01:27:55;100582.83;;;10.02;90.55
47811;BME280;33575;52.600;7.318;2023-04-23T01:30:26;100583.82;;;10.03;90.74
47811;BME280;33575;52.600;7.318;2023-04-23T01:32:55;100583.88;;;10.04;91.24
47811;BME280;33575;52.600;7.318;2023-04-23T01:35:26;100584.63;;;10.06;90.54
47811;BME280;33575;52.600;7.318;2023-04-23T01:37:58;100584.62;;;10.04;90.38
47811;BME280;33575;52.600;7.318;2023-04-23T01:40:26;100591.18;;;10.05;90.42
47811;BME280;33575;52.600;7.318;2023-04-23T01:42:57;100586.99;;;10.05;90.42
47811;BME280;33575;52.600;7.318;2023-04-23T01:45:29;100584.02;;;10.03;90.64
47811;BME280;33575;52.600;7.318;2023-04-23T01:47:59;100583.76;;;10.01;89.77
47811;BME280;33575;52.600;7.318;2023-04-23T01:50:29;100591.33;;;10.00;90.94
47811;BME280;33575;52.600;7.318;2023-04-23T01:52:59;100590.53;;;9.98;91.11
47811;BME280;33575;52.600;7.318;2023-04-23T01:55:30;100584.42;;;10.09;100.00
47811;BME280;33575;52.600;7.318;2023-04-23T01:58:01;100586.56;;;10.14;94.54
47811;BME280;33575;52.600;7.318;2023-04-23T02:00:31;100584.55;;;10.13;93.05
47811;BME280;33575;52.600;7.318;2023-04-23T02:03:02;100590.77;;;10.16;92.41
47811;BME280;33575;52.600;7.318;2023-04-23T02:05:34;100594.46;;;10.15;92.12
47811;BME280;33575;52.600;7.318;2023-04-23T02:08:03;100593.44;;;10.14;91.83
47811;BME280;33575;52.600;7.318;2023-04-23T02:10:33;100591.17;;;10.13;90.75
47811;BME280;33575;52.600;7.318;2023-04-23T02:13:03;100596.23;;;10.10;91.20
47811;BME280;33575;52.600;7.318;2023-04-23T02:15:34;100592.55;;;10.13;91.19
47811;BME280;33575;52.600;7.318;2023-04-23T02:18:04;100592.19;;;10.12;90.72
47811;BME280;33575;52.600;7.318;2023-04-23T02:20:35;100586.42;;;10.10;90.57
47811;BME280;33575;52.600;7.318;2023-04-23T02:23:06;100584.50;;;10.08;89.70
47811;BME280;33575;52.600;7.318;2023-04-23T02:25:36;100593.65;;;10.05;89.61
47811;BME280;33575;52.600;7.318;2023-04-23T02:28:06;100594.52;;;10.02;89.17
47811;BME280;33575;52.600;7.318;2023-04-23T02:30:36;100590.04;;;9.98;89.13
47811;BME280;33575;52.600;7.318;2023-04-23T02:33:07;100590.68;;;9.96;88.79
47811;BME280;33575;52.600;7.318;2023-04-23T02:35:37;100584.38;;;9.91;88.80
47811;BME280;33575;52.600;7.318;2023-04-23T02:38:07;100586.16;;;9.90;88.99
47811;BME280;33575;52.600;7.318;2023-04-23T02:40:38;100585.65;;;9.89;89.75
47811;BME280;33575;52.600;7.318;2023-04-23T02:43:08;100585.41;;;9.89;89.15
47811;BME280;33575;52.600;7.318;2023-04-23T02:45:39;100584.50;;;9.89;89.34
47811;BME280;33575;52.600;7.318;2023-04-23T02:48:09;100580.99;;;9.90;89.67
47811;BME280;33575;52.600;7.318;2023-04-23T02:50:40;100579.33;;;9.88;88.40
47811;BME280;33575;52.600;7.318;2023-04-23T02:53:10;100580.93;;;9.86;89.20
47811;BME280;33575;52.600;7.318;2023-04-23T02:55:41;100581.23;;;9.85;89.38
47811;BME280;33575;52.600;7.318;2023-04-23T02:58:12;100579.40;;;9.84;89.22
47811;BME280;33575;52.600;7.318;2023-04-23T03:00:42;100576.94;;;9.80;89.20
47811;BME280;33575;52.600;7.318;2023-04-23T03:03:14;100580.75;;;9.78;89.54
47811;BME280;33575;52.600;7.318;2023-04-23T03:05:42;100581.94;;;9.77;89.08
47811;BME280;33575;52.600;7.318;2023-04-23T03:08:13;100580.10;;;9.72;89.25
47811;BME280;33575;52.600;7.318;2023-04-23T03:10:43;100577.71;;;9.67;89.13
47811;BME280;33575;52.600;7.318;2023-04-23T03:13:13;100578.20;;;9.65;88.26
47811;BME280;33575;52.600;7.318;2023-04-23T03:15:43;100572.67;;;9.62;88.17
47811;BME280;33575;52.600;7.318;2023-04-23T03:18:14;100574.66;;;9.58;88.71
47811;BME280;33575;52.600;7.318;2023-04-23T03:20:45;100572.92;;;9.55;88.65
47811;BME280;33575;52.600;7.318;2023-04-23T03:23:15;100574.11;;;9.53;89.08
47811;BME280;33575;52.600;7.318;2023-04-23T03:25:46;100576.79;;;9.49;88.83
47811;BME280;33575;52.600;7.318;2023-04-23T03:28:16;100577.79;;;9.44;89.14
47811;BME280;33575;52.600;7.318;2023-04-23T03:30:47;100578.14;;;9.39;88.86
47811;BME280;33575;52.600;7.318;2023-04-23T03:33:17;100574.62;;;9.36;88.85
47811;BME280;33575;52.600;7.318;2023-04-23T03:35:48;100566.23;;;9.35;87.72
47811;BME280;33575;52.600;7.318;2023-04-23T03:38:18;100560.05;;;9.33;87.86
47811;BME280;33575;52.600;7.318;2023-04-23T03:40:49;100557.71;;;9.31;88.51
47811;BME280;33575;52.600;7.318;2023-04-23T03:43:19;100555.76;;;9.30;88.58
47811;BME280;33575;52.600;7.318;2023-04-23T03:45:49;100555.11;;;9.26;88.41
47811;BME280;33575;52.600;7.318;2023-04-23T03:48:19;100551.57;;;9.18;88.26
47811;BME280;33575;52.600;7.318;2023-04-23T03:50:50;100547.29;;;9.10;88.44
47811;BME280;33575;52.600;7.318;2023-04-23T03:53:21;100545.43;;;9.03;88.36
47811;BME280;33575;52.600;7.318;2023-04-23T03:55:51;100541.02;;;8.91;88.97
47811;BME280;33575;52.600;7.318;2023-04-23T03:58:22;100537.40;;;8.86;89.01
47811;BME280;33575;52.600;7.318;2023-04-23T04:00:53;100537.55;;;8.86;89.61
47811;BME280;33575;52.600;7.318;2023-04-23T04:03:23;100534.91;;;8.89;88.77
47811;BME280;33575;52.600;7.318;2023-04-23T04:05:53;100537.65;;;8.90;88.16
47811;BME280;33575;52.600;7.318;2023-04-23T04:08:24;100538.23;;;8.91;88.63
47811;BME280;33575;52.600;7.318;2023-04-23T04:10:55;100544.46;;;8.92;88.41
47811;BME280;33575;52.600;7.318;2023-04-23T04:13:26;100544.50;;;8.89;89.00
47811;BME280;33575;52.600;7.318;2023-04-23T04:15:56;100544.25;;;8.87;88.41
47811;BME280;33575;52.600;7.318;2023-04-23T04:18:26;100540.57;;;8.85;89.38
47811;BME280;33575;52.600;7.318;2023-04-23T04:20:56;100543.26;;;8.84;88.67
47811;BME280;33575;52.600;7.318;2023-04-23T04:23:27;100544.23;;;8.82;88.69
47811;BME280;33575;52.600;7.318;2023-04-23T04:25:57;100544.30;;;8.78;88.75
47811;BME280;33575;52.600;7.318;2023-04-23T04:28:27;100542.59;;;8.71;89.10
47811;BME280;33575;52.600;7.318;2023-04-23T04:30:58;100542.70;;;8.63;89.36
47811;BME280;33575;52.600;7.318;2023-04-23T04:33:28;100540.43;;;8.59;89.29
47811;BME280;33575;52.600;7.318;2023-04-23T04:35:58;100538.70;;;8.57;89.89
47811;BME280;33575;52.600;7.318;2023-04-23T04:38:28;100537.44;;;8.55;89.26
47811;BME280;33575;52.600;7.318;2023-04-23T04:40:59;100531.88;;;8.53;89.62
47811;BME280;33575;52.600;7.318;2023-04-23T04:43:30;100535.23;;;8.48;90.01
47811;BME280;33575;52.600;7.318;2023-04-23T04:46:00;100535.52;;;8.44;90.12
47811;BME280;33575;52.600;7.318;2023-04-23T04:48:30;100533.09;;;8.39;90.29
47811;BME280;33575;52.600;7.318;2023-04-23T04:51:00;100531.15;;;8.36;90.43
47811;BME280;33575;52.600;7.318;2023-04-23T04:53:31;100529.47;;;8.34;90.53
47811;BME280;33575;52.600;7.318;2023-04-23T04:56:02;100532.57;;;8.30;90.51
47811;BME280;33575;52.600;7.318;2023-04-23T04:58:33;100534.41;;;8.25;90.82
47811;BME280;33575;52.600;7.318;2023-04-23T05:01:03;100539.18;;;8.16;90.82
47811;BME280;33575;52.600;7.318;2023-04-23T05:03:34;100535.60;;;8.07;91.23
47811;BME280;33575;52.600;7.318;2023-04-23T05:06:04;100528.18;;;8.05;91.55
47811;BME280;33575;52.600;7.318;2023-04-23T05:08:34;100525.08;;;8.02;92.19
47811;BME280;33575;52.600;7.318;2023-04-23T05:11:04;100523.53;;;8.00;91.88
47811;BME280;33575;52.600;7.318;2023-04-23T05:13:34;100519.56;;;8.02;92.55
47811;BME280;33575;52.600;7.318;2023-04-23T05:16:05;100520.61;;;8.02;93.18
47811;BME280;33575;52.600;7.318;2023-04-23T05:18:35;100518.17;;;8.03;93.23
47811;BME280;33575;52.600;7.318;2023-04-23T05:21:06;100520.43;;;8.05;93.96
47811;BME280;33575;52.600;7.318;2023-04-23T05:23:36;100525.66;;;8.10;94.47
47811;BME280;33575;52.600;7.318;2023-04-23T05:26:06;100524.82;;;8.20;95.09
47811;BME280;33575;52.600;7.318;2023-04-23T05:28:36;100525.08;;;8.32;95.85
47811;BME280;33575;52.600;7.318;2023-04-23T05:31:07;100526.29;;;8.40;95.66
47811;BME280;33575;52.600;7.318;2023-04-23T05:33:42;100530.99;;;8.40;96.35
47811;BME280;33575;52.600;7.318;2023-04-23T05:36:07;100529.50;;;8.39;95.78
47811;BME280;33575;52.600;7.318;2023-04-23T05:38:37;100528.96;;;8.39;96.46
47811;BME280;33575;52.600;7.318;2023-04-23T05:41:08;100531.52;;;8.41;97.11
47811;BME280;33575;52.600;7.318;2023-04-23T05:43:38;100529.90;;;8.42;96.87
47811;BME280;33575;52.600;7.318;2023-04-23T05:46:09;100532.40;;;8.46;97.16
47811;BME280;33575;52.600;7.318;2023-04-23T05:48:40;100534.80;;;8.49;97.27
47811;BME280;33575;52.600;7.318;2023-04-23T05:51:10;100529.72;;;8.53;98.03
47811;BME280;33575;52.600;7.318;2023-04-23T05:53:40;100531.60;;;8.54;98.18
47811;BME280;33575;52.600;7.318;2023-04-23T05:56:11;100531.36;;;8.57;98.45
47811;BME280;33575;52.600;7.318;2023-04-23T05:58:41;100530.74;;;8.59;99.13
47811;BME280;33575;52.600;7.318;2023-04-23T06:01:11;100530.12;;;8.61;99.24
47811;BME280;33575;52.600;7.318;2023-04-23T06:03:42;100522.90;;;8.66;99.02
47811;BME280;33575;52.600;7.318;2023-04-23T06:06:13;100522.86;;;8.63;100.00
47811;BME280;33575;52.600;7.318;2023-04-23T06:08:43;100525.61;;;8.63;100.00
47811;BME280;33575;52.600;7.318;2023-04-23T06:11:13;100522.84;;;8.60;100.00
47811;BME280;33575;52.600;7.318;2023-04-23T06:13:45;100527.64;;;8.62;100.00
47811;BME280;33575;52.600;7.318;2023-04-23T06:16:14;100526.64;;;8.66;100.00
47811;BME280;33575;52.600;7.318;2023-04-23T06:18:44;100523.66;;;8.73;100.00
47811;BME280;33575;52.600;7.318;2023-04-23T06:21:15;100516.40;;;8.80;100.00
47811;BME280;33575;52.600;7.318;2023-04-23T06:23:45;100517.36;;;8.80;100.00
47811;BME280;33575;52.600;7.318;2023-04-23T06:26:15;100519.04;;;8.85;100.00
47811;BME280;33575;52.600;7.318;2023-04-23T06:28:46;100513.78;;;8.91;100.00
47811;BME280;33575;52.600;7.318;2023-04-23T06:31:16;100512.87;;;9.02;100.00
47811;BME280;33575;52.600;7.318;2023-04-23T06:33:46;100511.43;;;9.11;100.00
47811;BME280;33575;52.600;7.318;2023-04-23T06:36:17;100509.73;;;9.13;100.00
47811;BME280;33575;52.600;7.318;2023-04-23T06:38:47;100495.44;;;9.18;100.00
47811;BME280;33575;52.600;7.318;2023-04-23T06:41:18;100490.73;;;9.31;100.00
47811;BME280;33575;52.600;7.318;2023-04-23T06:43:48;100484.27;;;9.41;100.00
47811;BME280;33575;52.600;7.318;2023-04-23T06:46:19;100482.31;;;9.56;100.00
47811;BME280;33575;52.600;7.318;2023-04-23T06:48:50;100476.21;;;9.64;100.00
47811;BME280;33575;52.600;7.318;2023-04-23T06:51:20;100475.24;;;9.72;100.00
47811;BME280;33575;52.600;7.318;2023-04-23T06:53:50;100473.31;;;9.79;100.00
47811;BME280;33575;52.600;7.318;2023-04-23T06:56:20;100475.55;;;9.91;100.00
47811;BME280;33575;52.600;7.318;2023-04-23T06:58:50;100478.63;;;10.00;100.00
47811;BME280;33575;52.600;7.318;2023-04-23T07:01:21;100478.87;;;10.11;100.00
47811;BME280;33575;52.600;7.318;2023-04-23T07:03:52;100482.73;;;10.20;100.00
47811;BME280;33575;52.600;7.318;2023-04-23T07:06:21;100482.56;;;10.28;100.00
47811;BME280;33575;52.600;7.318;2023-04-23T07:08:52;100484.36;;;10.33;100.00
47811;BME280;33575;52.600;7.318;2023-04-23T07:11:23;100483.05;;;10.28;100.00
47811;BME280;33575;52.600;7.318;2023-04-23T07:13:54;100475.11;;;10.48;100.00
47811;BME280;33575;52.600;7.318;2023-04-23T07:16:24;100474.46;;;10.65;100.00
47811;BME280;33575;52.600;7.318;2023-04-23T07:18:54;100471.33;;;10.78;100.00
47811;BME280;33575;52.600;7.318;2023-04-23T07:21:25;100463.98;;;10.89;100.00
47811;BME280;33575;52.600;7.318;2023-04-23T07:23:56;100462.95;;;10.97;100.00
47811;BME280;33575;52.600;7.318;2023-04-23T07:26:26;100459.40;;;11.10;100.00
47811;BME280;33575;52.600;7.318;2023-04-23T07:28:56;100451.72;;;11.21;100.00
47811;BME280;33575;52.600;7.318;2023-04-23T07:31:26;100450.97;;;11.34;100.00
47811;BME280;33575;52.600;7.318;2023-04-23T07:33:56;100451.58;;;11.37;100.00
47811;BME280;33575;52.600;7.318;2023-04-23T07:36:26;100450.51;;;11.36;100.00
47811;BME280;33575;52.600;7.318;2023-04-23T07:38:57;100450.33;;;11.47;99.61
47811;BME280;33575;52.600;7.318;2023-04-23T07:41:27;100450.52;;;11.52;100.00
47811;BME280;33575;52.600;7.318;2023-04-23T07:43:58;100453.51;;;11.64;99.67
47811;BME280;33575;52.600;7.318;2023-04-23T07:46:28;100453.79;;;11.79;99.54
47811;BME280;33575;52.600;7.318;2023-04-23T07:48:58;100451.28;;;11.90;99.72
47811;BME280;33575;52.600;7.318;2023-04-23T07:51:29;100450.26;;;11.94;98.19
47811;BME280;33575;52.600;7.318;2023-04-23T07:53:59;100449.85;;;12.08;98.10
47811;BME280;33575;52.600;7.318;2023-04-23T07:56:30;100445.81;;;12.17;98.34
47811;BME280;33575;52.600;7.318;2023-04-23T07:59:01;100438.58;;;12.19;98.19
47811;BME280;33575;52.600;7.318;2023-04-23T08:01:31;100439.47;;;12.31;98.68
47811;BME280;33575;52.600;7.318;2023-04-23T08:04:02;100440.18;;;12.52;98.47
47811;BME280;33575;52.600;7.318;2023-04-23T08:06:32;100436.67;;;12.56;97.48
47811;BME280;33575;52.600;7.318;2023-04-23T08:09:03;100433.28;;;12.63;97.21
47811;BME280;33575;52.600;7.318;2023-04-23T08:11:33;100427.27;;;12.67;97.23
47811;BME280;33575;52.600;7.318;2023-04-23T08:14:04;100426.93;;;12.77;97.15
47811;BME280;33575;52.600;7.318;2023-04-23T08:16:37;100427.53;;;12.80;97.54
47811;BME280;33575;52.600;7.318;2023-04-23T08:19:07;100426.61;;;12.89;97.33
47811;BME280;33575;52.600;7.318;2023-04-23T08:21:35;100422.59;;;12.94;97.42
47811;BME280;33575;52.600;7.318;2023-04-23T08:24:06;100418.54;;;13.09;97.57
47811;BME280;33575;52.600;7.318;2023-04-23T08:26:36;100414.32;;;13.22;97.27
47811;BME280;33575;52.600;7.318;2023-04-23T08:29:06;100411.18;;;13.31;97.69
47811;BME280;33575;52.600;7.318;2023-04-23T08:31:37;100417.54;;;13.26;96.11
47811;BME280;33575;52.600;7.318;2023-04-23T08:34:07;100418.20;;;13.27;96.39
47811;BME280;33575;52.600;7.318;2023-04-23T08:36:38;100420.81;;;13.39;96.72
47811;BME280;33575;52.600;7.318;2023-04-23T08:39:08;100421.22;;;13.55;95.63
47811;BME280;33575;52.600;7.318;2023-04-23T08:41:40;100422.73;;;13.60;96.65
47811;BME280;33575;52.600;7.318;2023-04-23T08:44:12;100423.43;;;13.58;96.25
47811;BME280;33575;52.600;7.318;2023-04-23T08:46:42;100421.42;;;13.69;96.16
47811;BME280;33575;52.600;7.318;2023-04-23T08:49:14;100418.99;;;13.81;95.88
47811;BME280;33575;52.600;7.318;2023-04-23T08:51:45;100422.11;;;13.89;96.77
47811;BME280;33575;52.600;7.318;2023-04-23T08:54:15;100415.94;;;13.98;96.52
47811;BME280;33575;52.600;7.318;2023-04-23T08:56:41;100419.33;;;14.13;96.70
47811;BME280;33575;52.600;7.318;2023-04-23T08:59:12;100421.63;;;14.31;95.62
47811;BME280;33575;52.600;7.318;2023-04-23T09:01:43;100421.15;;;14.53;95.87
47811;BME280;33575;52.600;7.318;2023-04-23T09:04:14;100419.67;;;14.66;93.86
47811;BME280;33575;52.600;7.318;2023-04-23T09:06:43;100420.35;;;14.67;93.02
47811;BME280;33575;52.600;7.318;2023-04-23T09:09:15;100417.51;;;14.63;92.88
47811;BME280;33575;52.600;7.318;2023-04-23T09:11:44;100418.51;;;14.72;93.72
47811;BME280;33575;52.600;7.318;2023-04-23T09:14:15;100416.46;;;14.88;94.08
47811;BME280;33575;52.600;7.318;2023-04-23T09:16:45;100418.84;;;14.98;92.67
47811;BME280;33575;52.600;7.318;2023-04-23T09:19:17;100419.51;;;15.20;93.52
47811;BME280;33575;52.600;7.318;2023-04-23T09:21:46;100411.55;;;15.25;91.00
47811;BME280;33575;52.600;7.318;2023-04-23T09:24:17;100404.39;;;15.38;91.03
47811;BME280;33575;52.600;7.318;2023-04-23T09:26:49;100406.49;;;15.49;91.17
47811;BME280;33575;52.600;7.318;2023-04-23T09:29:19;100401.87;;;15.56;90.83
47811;BME280;33575;52.600;7.318;2023-04-23T09:31:50;100402.41;;;15.79;91.31
47811;BME280;33575;52.600;7.318;2023-04-23T09:34:20;100393.57;;;15.91;89.40
47811;BME280;33575;52.600;7.318;2023-04-23T09:36:50;100390.34;;;16.03;89.57
47811;BME280;33575;52.600;7.318;2023-04-23T09:39:22;100395.79;;;16.20;89.17
47811;BME280;33575;52.600;7.318;2023-04-23T09:41:51;100395.10;;;16.32;89.51
47811;BME280;33575;52.600;7.318;2023-04-23T09:44:21;100393.81;;;16.44;86.05
47811;BME280;33575;52.600;7.318;2023-04-23T09:46:51;100393.85;;;16.47;85.03
47811;BME280;33575;52.600;7.318;2023-04-23T09:49:21;100392.60;;;16.66;83.80
47811;BME280;33575;52.600;7.318;2023-04-23T09:51:52;100391.98;;;16.78;85.65
47811;BME280;33575;52.600;7.318;2023-04-23T09:54:22;100393.37;;;16.94;84.58
47811;BME280;33575;52.600;7.318;2023-04-23T09:56:53;100392.37;;;17.06;84.31
47811;BME280;33575;52.600;7.318;2023-04-23T09:59:29;100393.79;;;17.19;85.24
47811;BME280;33575;52.600;7.318;2023-04-23T10:01:54;100389.64;;;17.13;80.72
47811;BME280;33575;52.600;7.318;2023-04-23T10:04:24;100391.31;;;17.13;82.13
47811;BME280;33575;52.600;7.318;2023-04-23T10:07:00;100384.34;;;17.02;78.41
47811;BME280;33575;52.600;7.318;2023-04-23T10:09:26;100383.83;;;17.03;82.03
47811;BME280;33575;52.600;7.318;2023-04-23T10:11:56;100380.97;;;17.07;79.99
47811;BME280;33575;52.600;7.318;2023-04-23T10:14:26;100379.92;;;17.21;78.99
47811;BME280;33575;52.600;7.318;2023-04-23T10:16:58;100378.72;;;17.27;81.37
47811;BME280;33575;52.600;7.318;2023-04-23T10:19:27;100375.92;;;17.39;81.24
47811;BME280;33575;52.600;7.318;2023-04-23T10:22:04;100376.17;;;17.57;81.47
47811;BME280;33575;52.600;7.318;2023-04-23T10:24:30;100375.94;;;17.75;84.38
47811;BME280;33575;52.600;7.318;2023-04-23T10:26:58;100373.49;;;17.91;80.63
47811;BME280;33575;52.600;7.318;2023-04-23T10:29:28;100371.81;;;17.98;78.76
47811;BME280;33575;52.600;7.318;2023-04-23T10:31:59;100366.72;;;18.05;78.92
47811;BME280;33575;52.600;7.318;2023-04-23T10:34:30;100369.07;;;18.23;79.80
47811;BME280;33575;52.600;7.318;2023-04-23T10:37:00;100367.70;;;18.27;78.77
47811;BME280;33575;52.600;7.318;2023-04-23T10:39:34;100367.01;;;18.38;78.00
47811;BME280;33575;52.600;7.318;2023-04-23T10:42:00;100363.63;;;18.46;76.26
47811;BME280;33575;52.600;7.318;2023-04-23T10:44:36;100363.29;;;18.58;78.14
47811;BME280;33575;52.600;7.318;2023-04-23T10:47:00;100363.95;;;18.70;78.33
47811;BME280;33575;52.600;7.318;2023-04-23T10:49:31;100358.77;;;18.83;77.03
47811;BME280;33575;52.600;7.318;2023-04-23T10:52:08;100358.72;;;18.97;74.49
47811;BME280;33575;52.600;7.318;2023-04-23T10:54:32;100359.04;;;19.16;76.80
47811;BME280;33575;52.600;7.318;2023-04-23T10:57:02;100355.04;;;19.29;75.31
47811;BME280;33575;52.600;7.318;2023-04-23T10:59:33;100349.58;;;19.41;73.58
47811;BME280;33575;52.600;7.318;2023-04-23T11:02:06;100348.77;;;19.49;73.84
47811;BME280;33575;52.600;7.318;2023-04-23T11:04:34;100343.05;;;19.40;70.01
47811;BME280;33575;52.600;7.318;2023-04-23T11:07:05;100344.02;;;19.41;71.35
47811;BME280;33575;52.600;7.318;2023-04-23T11:09:39;100345.70;;;19.38;70.94
47811;BME280;33575;52.600;7.318;2023-04-23T11:12:06;100346.68;;;19.33;71.46
47811;BME280;33575;52.600;7.318;2023-04-23T11:14:35;100344.91;;;19.26;72.23
47811;BME280;33575;52.600;7.318;2023-04-23T11:17:04;100345.42;;;19.09;70.45
47811;BME280;33575;52.600;7.318;2023-04-23T11:19:35;100347.08;;;18.93;69.99
47811;BME280;33575;52.600;7.318;2023-04-23T11:22:05;100345.13;;;18.79;68.91
47811;BME280;33575;52.600;7.318;2023-04-23T11:24:37;100347.67;;;18.78;69.25
47811;BME280;33575;52.600;7.318;2023-04-23T11:27:07;100347.00;;;18.85;71.89
47811;BME280;33575;52.600;7.318;2023-04-23T11:29:36;100341.71;;;18.74;71.09
47811;BME280;33575;52.600;7.318;2023-04-23T11:32:06;100341.91;;;18.64;70.20
47811;BME280;33575;52.600;7.318;2023-04-23T11:34:37;100345.79;;;18.62;72.65
47811;BME280;33575;52.600;7.318;2023-04-23T11:37:09;100336.48;;;18.71;71.55
47811;BME280;33575;52.600;7.318;2023-04-23T11:39:37;100331.02;;;18.88;70.58
47811;BME280;33575;52.600;7.318;2023-04-23T11:42:09;100324.71;;;19.02;71.42
47811;BME280;33575;52.600;7.318;2023-04-23T11:44:38;100322.72;;;19.05;70.14
47811;BME280;33575;52.600;7.318;2023-04-23T11:47:08;100315.38;;;19.12;70.53
47811;BME280;33575;52.600;7.318;2023-04-23T11:49:39;100314.48;;;19.01;67.84
47811;BME280;33575;52.600;7.318;2023-04-23T11:52:08;100310.23;;;19.09;68.37
47811;BME280;33575;52.600;7.318;2023-04-23T11:54:40;100312.66;;;18.83;67.91
47811;BME280;33575;52.600;7.318;2023-04-23T11:57:09;100307.55;;;18.88;68.96
47811;BME280;33575;52.600;7.318;2023-04-23T11:59:39;100311.07;;;18.83;69.02
47811;BME280;33575;52.600;7.318;2023-04-23T12:02:10;100309.26;;;18.82;71.15
47811;BME280;33575;52.600;7.318;2023-04-23T12:04:42;100306.34;;;18.85;71.12
47811;BME280;33575;52.600;7.318;2023-04-23T12:07:15;100302.90;;;18.92;72.05
47811;BME280;33575;52.600;7.318;2023-04-23T12:09:41;100301.45;;;18.68;67.06
47811;BME280;33575;52.600;7.318;2023-04-23T12:12:11;100297.21;;;18.97;69.84
47811;BME280;33575;52.600;7.318;2023-04-23T12:14:41;100297.59;;;19.04;69.64
47811;BME280;33575;52.600;7.318;2023-04-23T12:17:11;100292.58;;;19.05;69.07
47811;BME280;33575;52.600;7.318;2023-04-23T12:19:42;100290.79;;;19.13;69.68
47811;BME280;33575;52.600;7.318;2023-04-23T12:22:12;100283.25;;;18.94;68.01
47811;BME280;33575;52.600;7.318;2023-04-23T12:24:47;100284.35;;;19.03;65.79
47811;BME280;33575;52.600;7.318;2023-04-23T12:27:14;100281.15;;;18.90;63.35
47811;BME280;33575;52.600;7.318;2023-04-23T12:29:44;100281.04;;;18.91;65.29
47811;BME280;33575;52.600;7.318;2023-04-23T12:32:14;100278.54;;;18.91;65.50
47811;BME280;33575;52.600;7.318;2023-04-23T12:34:50;100279.67;;;18.87;66.20
47811;BME280;33575;52.600;7.318;2023-04-23T12:37:14;100275.90;;;18.85;63.97
47811;BME280;33575;52.600;7.318;2023-04-23T12:39:44;100270.25;;;18.80;61.35
47811;BME280;33575;52.600;7.318;2023-04-23T12:42:14;100265.60;;;18.82;60.84
47811;BME280;33575;52.600;7.318;2023-04-23T12:44:44;100258.71;;;18.72;61.22
47811;BME280;33575;52.600;7.318;2023-04-23T12:47:15;100255.33;;;18.77;62.62
47811;BME280;33575;52.600;7.318;2023-04-23T12:49:47;100256.16;;;18.82;63.11
47811;BME280;33575;52.600;7.318;2023-04-23T12:52:15;100255.72;;;18.98;65.09
47811;BME280;33575;52.600;7.318;2023-04-23T12:54:45;100243.76;;;19.07;65.70
47811;BME280;33575;52.600;7.318;2023-04-23T12:57:16;100237.47;;;19.05;65.80
47811;BME280;33575;52.600;7.318;2023-04-23T12:59:46;100237.78;;;19.05;64.93
47811;BME280;33575;52.600;7.318;2023-04-23T13:02:17;100237.29;;;19.10;64.96
47811;BME280;33575;52.600;7.318;2023-04-23T13:04:46;100234.84;;;19.12;64.17
47811;BME280;33575;52.600;7.318;2023-04-23T13:07:17;100235.41;;;19.19;65.16